Portada
METAR-TAF:

METAR-TAF

Aeroports :

Franklin County Airport

Louisburg, Carolina del Nord, Estats Units d'Amèrica

latitud: 36-01-24N, longitud: 078-19-49W, altitud: 113 m

Observació

L'informe es va fer fa 11 minuts, a les 03:55 UTC
Vent 8 kt del Nord
Temperatura 6°C
Humitat 75%
Pressió 1015 hPa
Visibilitat: 16.1 km
Cel cobert a una alçada de 1700 ft

METAR: KLHZ 180355Z AUTO 35008KT 10SM OVC017 06/02 A2997 RMK AO2

Hora: 23:06 (04:06 UTC)


TAF: manca

Observacions i pronòstics meteorològics de més de 4000 aeroports (METAR i TAF).

Les estacions disponibles són els punts grocs i vermells al mapa.

Posi el ratolí al punt desitjat per veure el nom de l'estació.

Feu clic per veure les observacions i els pronòstics meteorològics.

Per canviar el mapa: feu clic els botons verds amb una creu de color negre per apropar; al botó verd amb un guió per allunyar la imatge; o en les fletxes verdes per a mapes adjacents.


METAR-TAF: